Time;durP1;ratioP1;P1;durP2;ratioP2;P2;SDS_P1;SDS_P2;PMS_P1;PMS_P2;Temp;Humidity;BMP_temperature;BMP_pressure;BME280_temperature;BME280_humidity;BME280_pressure;Samples;Min_cycle;Max_cycle;Signal;HPM_P1;HPM_P2
2021/04/22 00:01:10;;;;;;;4.68;1.63;;;12.20;51.60;;;;;;5032034;28;20036;-82
2021/04/22 00:03:36;;;;;;;2.60;1.25;;;12.10;51.60;;;;;;5060895;28;20384;-82
2021/04/22 00:06:02;;;;;;;3.08;1.48;;;12.10;51.60;;;;;;5055824;28;20029;-83
2021/04/22 00:08:28;;;;;;;2.97;1.50;;;12.10;51.70;;;;;;5045030;28;20021;-82
2021/04/22 00:10:54;;;;;;;2.90;1.40;;;12.00;51.70;;;;;;5022438;28;20033;-82
2021/04/22 00:13:24;;;;;;;4.20;1.58;;;12.00;51.80;;;;;;5042452;28;20032;-82
2021/04/22 00:15:50;;;;;;;2.70;1.33;;;12.00;51.80;;;;;;5054613;28;20029;-83
2021/04/22 00:18:16;;;;;;;3.33;1.30;;;11.90;51.80;;;;;;5025353;28;20470;-83
2021/04/22 00:20:42;;;;;;;4.22;1.63;;;11.90;51.90;;;;;;5050748;28;20029;-83
2021/04/22 00:23:10;;;;;;;3.25;1.48;;;11.90;51.90;;;;;;5038790;28;20433;-82
2021/04/22 00:25:36;;;;;;;3.42;1.55;;;11.80;51.90;;;;;;5048224;28;20465;-83
2021/04/22 00:28:03;;;;;;;3.42;1.45;;;11.80;51.90;;;;;;5055254;28;20040;-83
2021/04/22 00:30:29;;;;;;;2.90;1.35;;;11.70;51.90;;;;;;5052568;28;20033;-83
2021/04/22 00:32:55;;;;;;;2.88;1.52;;;11.60;51.90;;;;;;5070022;28;20036;-82
2021/04/22 00:35:21;;;;;;;3.60;1.50;;;11.60;52.00;;;;;;5035645;28;20489;-83
2021/04/22 00:37:47;;;;;;;3.30;1.63;;;11.70;52.10;;;;;;5050571;28;20027;-83
2021/04/22 00:40:20;;;;;;;3.88;1.60;;;11.60;52.10;;;;;;5038891;28;20021;-82
2021/04/22 00:42:46;;;;;;;4.00;1.52;;;11.50;52.10;;;;;;5055360;28;20033;-83
2021/04/22 00:45:13;;;;;;;2.55;1.40;;;11.50;52.10;;;;;;5055309;28;20032;-83
2021/04/22 00:47:39;;;;;;;3.30;1.70;;;11.50;52.20;;;;;;5036501;28;20377;-83
2021/04/22 00:50:15;;;;;;;4.50;1.52;;;11.50;52.20;;;;;;5056130;28;20028;-83
2021/04/22 00:52:41;;;;;;;3.80;1.45;;;11.40;52.20;;;;;;5072665;28;20043;-83
2021/04/22 00:55:08;;;;;;;4.60;2.00;;;11.40;52.20;;;;;;5019486;28;20056;-82
2021/04/22 00:57:34;;;;;;;1.73;1.20;;;11.40;52.20;;;;;;5036065;28;20052;-83
2021/04/22 00:59:59;;;;;;;2.42;1.42;;;11.30;52.20;;;;;;5017387;28;20025;-83
2021/04/22 01:02:25;;;;;;;3.10;1.58;;;11.30;52.30;;;;;;5022127;28;20462;-83
2021/04/22 01:04:51;;;;;;;3.28;1.48;;;11.30;52.30;;;;;;5058025;28;20381;-83
2021/04/22 01:07:18;;;;;;;4.15;1.95;;;11.20;52.30;;;;;;5065921;28;20078;-83
2021/04/22 01:09:44;;;;;;;4.00;1.70;;;11.20;52.40;;;;;;5059538;28;20108;-83
2021/04/22 01:12:11;;;;;;;3.08;1.30;;;11.10;52.30;;;;;;5023831;28;20154;-83
2021/04/22 01:14:39;;;;;;;3.30;1.75;;;11.10;52.40;;;;;;5052411;28;20032;-82
2021/04/22 01:17:05;;;;;;;3.15;1.55;;;11.10;52.50;;;;;;5044524;28;20037;-82
2021/04/22 01:19:31;;;;;;;3.15;1.50;;;11.00;52.40;;;;;;5050293;28;20017;-82
2021/04/22 01:21:57;;;;;;;2.83;1.52;;;11.00;52.40;;;;;;5045379;28;20037;-83
2021/04/22 01:24:22;;;;;;;2.47;1.40;;;11.00;52.50;;;;;;5022452;28;20040;-82
2021/04/22 01:26:48;;;;;;;3.10;1.33;;;11.00;52.60;;;;;;5055136;28;20048;-82
2021/04/22 01:29:15;;;;;;;2.17;1.27;;;10.90;52.50;;;;;;5038988;28;20035;-83
2021/04/22 01:31:42;;;;;;;4.57;1.52;;;10.90;52.60;;;;;;5055342;28;20044;-83
2021/04/22 01:34:10;;;;;;;2.70;1.52;;;10.80;52.60;;;;;;5059237;28;20037;-83
2021/04/22 01:36:41;;;;;;;2.88;1.38;;;10.80;52.60;;;;;;5053466;28;20037;-83
2021/04/22 01:39:10;;;;;;;2.67;1.70;;;10.80;52.70;;;;;;5069898;28;20031;-83
2021/04/22 01:41:36;;;;;;;4.03;1.80;;;10.70;52.70;;;;;;5063164;28;20124;-82
2021/04/22 01:44:02;;;;;;;3.10;1.80;;;10.70;52.70;;;;;;5049148;28;20379;-83
2021/04/22 01:46:28;;;;;;;3.90;1.88;;;10.70;52.70;;;;;;5034539;28;20025;-82
2021/04/22 01:48:54;;;;;;;4.72;1.77;;;10.70;52.80;;;;;;5055251;28;20478;-82
2021/04/22 01:51:20;;;;;;;3.85;1.90;;;10.60;52.70;;;;;;5034982;28;20366;-83
2021/04/22 01:53:47;;;;;;;2.38;1.48;;;10.60;52.80;;;;;;5055374;28;20032;-83
2021/04/22 01:56:14;;;;;;;3.28;1.50;;;10.60;52.80;;;;;;5051939;28;20036;-83
2021/04/22 01:58:40;;;;;;;4.78;2.03;;;10.60;52.80;;;;;;5043383;28;20027;-82
2021/04/22 02:01:06;;;;;;;4.63;2.05;;;10.50;52.80;;;;;;5042516;28;20393;-84
2021/04/22 02:04:11;;;;;;;2.60;1.60;;;10.50;52.80;;;;;;5060059;28;20438;-82
2021/04/22 02:06:37;;;;;;;3.05;1.50;;;10.40;52.90;;;;;;5070375;28;20033;-82
2021/04/22 02:09:03;;;;;;;4.50;1.75;;;10.40;52.80;;;;;;5039651;28;20148;-82
2021/04/22 02:11:28;;;;;;;3.55;1.63;;;10.40;52.90;;;;;;5039012;28;20033;-82
2021/04/22 02:13:54;;;;;;;4.63;1.83;;;10.40;53.00;;;;;;5055397;28;20040;-82
2021/04/22 02:16:20;;;;;;;2.72;1.52;;;10.30;53.00;;;;;;5022320;28;20040;-82
2021/04/22 02:22:09;;;;;;;3.38;1.70;;;10.30;53.10;;;;;;5070670;28;20455;-82
2021/04/22 02:24:35;;;;;;;2.25;1.48;;;10.20;53.00;;;;;;5058720;28;20059;-81
2021/04/22 02:27:01;;;;;;;3.40;1.63;;;10.20;53.10;;;;;;5040593;28;20055;-82
2021/04/22 02:29:27;;;;;;;4.13;1.88;;;10.20;53.10;;;;;;5049805;28;20039;-82
2021/04/22 02:31:52;;;;;;;3.65;1.80;;;10.20;53.20;;;;;;5038077;28;20490;-82
2021/04/22 02:34:18;;;;;;;3.75;1.83;;;10.10;53.10;;;;;;5044550;28;20025;-83
2021/04/22 02:36:44;;;;;;;3.90;1.55;;;10.10;53.20;;;;;;5050364;28;20033;-82
2021/04/22 02:39:10;;;;;;;2.60;1.65;;;10.00;53.10;;;;;;5058017;28;20492;-83
2021/04/22 02:41:36;;;;;;;4.18;1.60;;;10.00;53.10;;;;;;5060921;28;20075;-82
2021/04/22 02:44:01;;;;;;;2.45;1.33;;;10.00;53.20;;;;;;5038532;28;20032;-83
2021/04/22 02:46:27;;;;;;;2.20;1.40;;;10.00;53.20;;;;;;5021625;28;20468;-82
2021/04/22 02:48:53;;;;;;;4.35;1.90;;;9.90;53.20;;;;;;5037841;28;20116;-88
2021/04/22 02:51:19;;;;;;;4.13;2.08;;;9.90;53.20;;;;;;5056124;28;20086;-82
2021/04/22 02:53:45;;;;;;;3.45;1.73;;;9.90;53.30;;;;;;5042573;28;20064;-83
2021/04/22 02:59:34;;;;;;;3.88;1.77;;;9.80;53.40;;;;;;5065168;28;20079;-82
2021/04/22 03:02:00;;;;;;;3.40;1.92;;;9.80;53.30;;;;;;5021391;28;20493;-82
2021/04/22 03:04:26;;;;;;;3.40;1.75;;;9.80;53.40;;;;;;5037283;28;20029;-83
2021/04/22 03:06:52;;;;;;;3.13;1.80;;;9.70;53.40;;;;;;5037592;28;20036;-83
2021/04/22 03:09:17;;;;;;;4.20;1.92;;;9.70;53.40;;;;;;5020420;28;20120;-82
2021/04/22 03:11:43;;;;;;;3.25;1.70;;;9.70;53.40;;;;;;5054266;28;20049;-83
2021/04/22 03:14:12;;;;;;;3.15;1.90;;;9.60;53.40;;;;;;5053945;28;20029;-82
2021/04/22 03:16:38;;;;;;;4.47;1.80;;;9.60;53.40;;;;;;5037491;28;20487;-82
2021/04/22 03:19:04;;;;;;;3.03;1.70;;;9.60;53.50;;;;;;5053756;28;20032;-82
2021/04/22 03:21:29;;;;;;;2.35;1.58;;;9.60;53.50;;;;;;5053974;28;20036;-82
2021/04/22 03:23:55;;;;;;;3.53;2.00;;;9.50;53.50;;;;;;5036443;28;20381;-83
2021/04/22 03:26:21;;;;;;;2.30;1.77;;;9.50;53.50;;;;;;5069106;28;20056;-83
2021/04/22 03:28:47;;;;;;;4.32;1.70;;;9.50;53.60;;;;;;5047253;28;20079;-82
2021/04/22 03:31:14;;;;;;;3.33;1.88;;;9.50;53.60;;;;;;5047546;28;20039;-82
2021/04/22 03:33:39;;;;;;;3.20;1.83;;;9.40;53.60;;;;;;5039844;28;20458;-82
2021/04/22 03:36:06;;;;;;;4.22;2.08;;;9.40;53.60;;;;;;5064354;28;20017;-83
2021/04/22 03:38:31;;;;;;;4.20;1.80;;;9.40;53.60;;;;;;5049262;28;20036;-83
2021/04/22 03:40:57;;;;;;;3.88;2.10;;;9.30;53.60;;;;;;5038791;28;20028;-82
2021/04/22 03:43:23;;;;;;;3.42;1.70;;;9.30;53.70;;;;;;5036808;28;20037;-82
2021/04/22 03:45:49;;;;;;;4.03;1.85;;;9.30;53.70;;;;;;5039136;28;20074;-85
2021/04/22 03:48:14;;;;;;;2.95;1.83;;;9.20;53.70;;;;;;5041390;28;20029;-82
2021/04/22 03:50:40;;;;;;;4.35;1.80;;;9.20;53.70;;;;;;5039493;28;20024;-82
2021/04/22 03:53:06;;;;;;;4.43;1.80;;;9.20;53.70;;;;;;5052338;28;20110;-82
2021/04/22 03:55:31;;;;;;;2.22;1.50;;;9.20;53.80;;;;;;5049318;28;20096;-82
2021/04/22 03:57:57;;;;;;;4.80;1.67;;;9.20;53.80;;;;;;5060001;28;20394;-82
2021/04/22 04:00:24;;;;;;;3.45;1.98;;;9.10;53.80;;;;;;5066345;28;20053;-83
2021/04/22 04:02:50;;;;;;;7.30;2.22;;;9.10;53.80;;;;;;5044982;28;20499;-82
2021/04/22 04:05:17;;;;;;;2.50;1.63;;;9.10;53.80;;;;;;5072070;28;20017;-82
2021/04/22 04:07:43;;;;;;;3.50;1.90;;;9.00;53.80;;;;;;5071090;28;20025;-78
2021/04/22 04:10:10;;;;;;;3.42;2.00;;;9.00;53.90;;;;;;5034176;28;20470;-80
2021/04/22 04:12:36;;;;;;;3.03;1.70;;;9.00;53.90;;;;;;5044399;28;20437;-80
2021/04/22 04:15:04;;;;;;;2.30;1.75;;;9.00;54.00;;;;;;5058082;28;20024;-80
2021/04/22 04:17:30;;;;;;;5.13;1.90;;;9.00;54.00;;;;;;5064091;28;20025;-80
2021/04/22 04:19:56;;;;;;;3.10;2.03;;;8.90;54.00;;;;;;5039050;28;20051;-80
2021/04/22 04:22:21;;;;;;;3.80;1.60;;;8.90;54.00;;;;;;5071330;28;20037;-80
2021/04/22 04:24:47;;;;;;;2.22;1.50;;;8.90;54.00;;;;;;5037860;28;20031;-79
2021/04/22 04:27:13;;;;;;;3.13;1.85;;;8.90;54.10;;;;;;5055576;28;20060;-80
2021/04/22 04:29:39;;;;;;;3.13;1.88;;;8.90;54.10;;;;;;5052961;28;20082;-81
2021/04/22 04:32:05;;;;;;;3.20;1.70;;;8.80;54.10;;;;;;5052578;28;20111;-80
2021/04/22 04:34:31;;;;;;;4.03;1.88;;;8.80;54.10;;;;;;5053956;28;20025;-80
2021/04/22 04:36:57;;;;;;;4.15;1.70;;;8.80;54.10;;;;;;5048118;28;20029;-80
2021/04/22 04:39:22;;;;;;;3.35;1.50;;;8.80;54.10;;;;;;5044772;28;20033;-80
2021/04/22 04:41:48;;;;;;;3.47;1.75;;;8.70;54.10;;;;;;5068878;28;20029;-79
2021/04/22 04:44:14;;;;;;;3.63;1.90;;;8.70;54.20;;;;;;5040435;28;20025;-83
2021/04/22 04:46:40;;;;;;;2.90;1.80;;;8.70;54.20;;;;;;5049140;28;20365;-80
2021/04/22 04:49:07;;;;;;;2.85;1.63;;;8.70;54.20;;;;;;5064473;28;20091;-85
2021/04/22 04:51:33;;;;;;;2.33;1.60;;;8.70;54.20;;;;;;5055951;28;20082;-85
2021/04/22 04:53:59;;;;;;;3.35;1.73;;;8.70;54.30;;;;;;5046363;28;20504;-85
2021/04/22 04:56:25;;;;;;;3.53;1.80;;;8.70;54.30;;;;;;5030009;28;20037;-84
2021/04/22 04:58:50;;;;;;;1.90;1.60;;;8.70;54.30;;;;;;5047439;28;20017;-83
2021/04/22 05:01:17;;;;;;;2.53;1.58;;;8.70;54.30;;;;;;5065000;28;20136;-87
2021/04/22 05:03:43;;;;;;;2.35;1.75;;;8.60;54.30;;;;;;5057978;28;20028;-81
2021/04/22 05:06:09;;;;;;;3.00;1.80;;;8.60;54.30;;;;;;5052488;28;20379;-78
2021/04/22 05:08:34;;;;;;;2.95;1.73;;;8.60;54.30;;;;;;5053569;28;20029;-82
2021/04/22 05:11:00;;;;;;;2.33;1.67;;;8.60;54.30;;;;;;5036538;28;20032;-81
2021/04/22 05:13:27;;;;;;;3.42;1.63;;;8.60;54.30;;;;;;5047159;28;20499;-77
2021/04/22 05:15:53;;;;;;;2.13;1.75;;;8.60;54.40;;;;;;5053528;28;20048;-78
2021/04/22 05:18:19;;;;;;;2.75;1.80;;;8.60;54.40;;;;;;5067273;28;20035;-79
2021/04/22 05:20:45;;;;;;;3.97;2.10;;;8.60;54.40;;;;;;5052861;28;20024;-79
2021/04/22 05:23:11;;;;;;;2.03;1.50;;;8.50;54.40;;;;;;5049106;28;20116;-81
2021/04/22 05:25:36;;;;;;;2.17;1.55;;;8.50;54.40;;;;;;5063029;28;20073;-79
2021/04/22 05:28:02;;;;;;;2.58;1.80;;;8.60;54.50;;;;;;5056091;28;20118;-83
2021/04/22 05:30:28;;;;;;;3.60;1.70;;;8.50;54.40;;;;;;5072792;28;20033;-81
2021/04/22 05:32:54;;;;;;;2.08;1.70;;;8.50;54.40;;;;;;5051909;28;20094;-79
2021/04/22 05:35:20;;;;;;;2.13;1.52;;;8.50;54.40;;;;;;5047288;28;20484;-80
2021/04/22 05:37:46;;;;;;;1.73;1.58;;;8.50;54.50;;;;;;5057638;28;20443;-81
2021/04/22 05:40:12;;;;;;;2.60;1.52;;;8.50;54.50;;;;;;5058824;28;20109;-82
2021/04/22 05:42:38;;;;;;;2.88;1.75;;;8.50;54.50;;;;;;5040409;28;20539;-81
2021/04/22 05:45:05;;;;;;;2.50;1.70;;;8.50;54.50;;;;;;5069989;28;20032;-81
2021/04/22 05:47:31;;;;;;;4.75;1.58;;;8.50;54.50;;;;;;5037645;28;20037;-83
2021/04/22 05:49:57;;;;;;;3.65;1.83;;;8.50;55.20;;;;;;5038626;28;20366;-81
2021/04/22 05:52:23;;;;;;;1.92;1.48;;;8.50;54.50;;;;;;5050239;28;20497;-82
2021/04/22 05:54:48;;;;;;;4.47;1.40;;;8.50;54.50;;;;;;5030377;28;20448;-82
2021/04/22 05:57:14;;;;;;;3.95;1.75;;;8.50;54.60;;;;;;5056763;28;20079;-81
2021/04/22 05:59:40;;;;;;;2.97;1.60;;;8.50;54.60;;;;;;5013914;28;20037;-79
2021/04/22 06:02:06;;;;;;;2.20;1.50;;;8.50;54.60;;;;;;5040373;28;20040;-81
2021/04/22 06:04:32;;;;;;;2.00;1.30;;;8.50;54.60;;;;;;5045419;28;20025;-81
2021/04/22 06:06:57;;;;;;;4.55;2.10;;;8.40;54.60;;;;;;5056063;28;20025;-80
2021/04/22 06:09:23;;;;;;;2.63;1.55;;;8.40;54.60;;;;;;5027736;28;20350;-81
2021/04/22 06:11:49;;;;;;;2.55;1.98;;;8.40;54.60;;;;;;5047738;28;20036;-81
2021/04/22 06:14:15;;;;;;;1.55;1.42;;;8.40;54.60;;;;;;5022473;28;20024;-81
2021/04/22 06:16:40;;;;;;;3.03;1.40;;;8.40;54.60;;;;;;5037262;28;20041;-81
2021/04/22 06:19:06;;;;;;;3.42;1.48;;;8.40;54.70;;;;;;5067047;28;20033;-81
2021/04/22 06:21:32;;;;;;;2.42;1.50;;;8.40;54.70;;;;;;5051776;28;20033;-80
2021/04/22 06:23:58;;;;;;;3.90;1.65;;;8.40;54.60;;;;;;5036130;28;20033;-81
2021/04/22 06:26:24;;;;;;;2.15;1.48;;;8.40;54.70;;;;;;5050410;28;20178;-81
2021/04/22 06:28:51;;;;;;;2.95;1.55;;;8.40;54.70;;;;;;5029876;28;20031;-81
2021/04/22 06:31:17;;;;;;;3.75;1.80;;;8.50;54.80;;;;;;5060189;28;20032;-81
2021/04/22 06:33:43;;;;;;;2.22;1.60;;;8.50;54.80;;;;;;5037324;28;20038;-81
2021/04/22 06:36:13;;;;;;;1.80;1.40;;;8.50;54.80;;;;;;5046456;28;20057;-82
2021/04/22 06:38:43;;;;;;;1.75;1.30;;;8.50;55.40;;;;;;5037073;28;20052;-81
2021/04/22 06:41:09;;;;;;;2.47;1.42;;;8.50;54.80;;;;;;5032862;28;20033;-81
2021/04/22 06:43:35;;;;;;;2.88;1.35;;;8.50;54.80;;;;;;5034510;28;20028;-82
2021/04/22 06:46:01;;;;;;;1.38;1.10;;;8.50;54.80;;;;;;5037081;28;20533;-82
2021/04/22 06:48:26;;;;;;;3.38;1.65;;;8.50;54.80;;;;;;5036430;28;20806;-82
2021/04/22 06:50:52;;;;;;;1.63;1.30;;;8.50;54.80;;;;;;5061960;28;20082;-81
2021/04/22 06:53:18;;;;;;;2.42;1.30;;;8.60;54.80;;;;;;5022366;28;20029;-82
2021/04/22 06:55:44;;;;;;;2.03;1.70;;;8.60;54.80;;;;;;5043534;28;20112;-82
2021/04/22 06:58:09;;;;;;;4.28;1.38;;;8.60;54.80;;;;;;5044053;28;20052;-81
2021/04/22 07:00:38;;;;;;;1.40;1.30;;;8.60;54.80;;;;;;5057852;28;20037;-79
2021/04/22 07:03:05;;;;;;;2.47;1.42;;;8.70;54.90;;;;;;5063036;28;20039;-81
2021/04/22 07:05:31;;;;;;;3.42;1.50;;;8.70;54.90;;;;;;5033583;28;20021;-81
2021/04/22 07:07:57;;;;;;;2.28;1.45;;;8.70;54.90;;;;;;5053053;28;20032;-81
2021/04/22 07:10:23;;;;;;;2.05;1.55;;;8.80;55.50;;;;;;5052784;28;20036;-81
2021/04/22 07:12:49;;;;;;;1.58;1.33;;;8.80;54.90;;;;;;5059830;28;20089;-82
2021/04/22 07:15:15;;;;;;;2.08;1.33;;;8.80;54.90;;;;;;5019928;28;20028;-80
2021/04/22 07:17:41;;;;;;;2.13;1.45;;;8.90;54.90;;;;;;5003551;28;20040;-80
2021/04/22 07:20:15;;;;;;;3.08;1.80;;;8.90;54.90;;;;;;5044398;28;20020;-82
2021/04/22 07:22:41;;;;;;;1.95;1.40;;;8.90;54.90;;;;;;5055309;28;20044;-82
2021/04/22 07:25:10;;;;;;;2.95;1.40;;;9.00;54.90;;;;;;5040342;28;20078;-81
2021/04/22 07:27:36;;;;;;;1.98;1.35;;;9.00;55.00;;;;;;5065966;28;20044;-81
2021/04/22 07:30:05;;;;;;;2.45;1.30;;;9.00;54.80;;;;;;5056062;28;20123;-82
2021/04/22 07:32:30;;;;;;;3.53;1.63;;;9.10;54.90;;;;;;5055946;28;20298;-81
2021/04/22 07:34:56;;;;;;;3.92;1.80;;;9.10;54.80;;;;;;5041879;28;20032;-82
2021/04/22 07:37:22;;;;;;;1.80;1.60;;;9.10;54.80;;;;;;5039459;28;20032;-81
2021/04/22 07:39:48;;;;;;;2.53;1.42;;;9.20;54.80;;;;;;5019431;28;20424;-81
2021/04/22 07:42:14;;;;;;;2.95;1.40;;;9.20;54.90;;;;;;5052463;28;20498;-82
2021/04/22 07:44:40;;;;;;;2.15;1.27;;;9.30;54.90;;;;;;5035469;28;20025;-81
2021/04/22 07:47:07;;;;;;;1.95;1.27;;;9.30;54.90;;;;;;5051139;28;20079;-81
2021/04/22 07:49:34;;;;;;;2.85;1.50;;;9.30;54.90;;;;;;5044191;28;20127;-82
2021/04/22 07:52:01;;;;;;;3.58;1.35;;;9.30;54.90;;;;;;5055438;28;20093;-82
2021/04/22 07:54:27;;;;;;;1.92;1.27;;;9.40;54.90;;;;;;5061936;28;20043;-81
2021/04/22 07:56:52;;;;;;;2.38;1.33;;;9.40;54.80;;;;;;5049429;28;20115;-81
2021/04/22 07:59:21;;;;;;;2.22;1.35;;;9.40;54.80;;;;;;5054903;28;20020;-84
2021/04/22 08:01:47;;;;;;;2.53;1.23;;;9.40;54.80;;;;;;5021630;28;20041;-82
2021/04/22 08:04:13;;;;;;;2.03;1.20;;;9.50;54.80;;;;;;5041812;28;20033;-86
2021/04/22 08:06:39;;;;;;;2.42;1.45;;;9.50;54.80;;;;;;5055163;28;20067;-83
2021/04/22 08:09:05;;;;;;;1.60;1.20;;;9.60;54.80;;;;;;5067275;28;20496;-81
2021/04/22 08:11:31;;;;;;;2.20;1.50;;;9.60;54.80;;;;;;5051637;28;20029;-82
2021/04/22 08:13:57;;;;;;;1.98;1.33;;;9.60;54.70;;;;;;5050215;28;20021;-80
2021/04/22 08:16:23;;;;;;;2.20;1.40;;;9.70;54.80;;;;;;5057079;28;20484;-82
2021/04/22 08:18:49;;;;;;;2.72;1.23;;;9.70;54.70;;;;;;5021939;28;20060;-82
2021/04/22 08:21:14;;;;;;;1.83;1.23;;;9.80;54.70;;;;;;5035711;28;20537;-87
2021/04/22 08:23:41;;;;;;;2.90;1.30;;;9.80;54.70;;;;;;5066643;28;20479;-81
2021/04/22 08:26:09;;;;;;;2.67;1.60;;;9.90;54.60;;;;;;5053644;28;20073;-82
2021/04/22 08:28:36;;;;;;;1.90;1.27;;;9.90;54.60;;;;;;5015032;28;20029;-82
2021/04/22 08:31:13;;;;;;;3.55;1.55;;;10.00;54.60;;;;;;5011953;28;20040;-82
2021/04/22 08:33:40;;;;;;;1.65;1.17;;;10.00;54.50;;;;;;5028086;28;20112;-82
2021/04/22 08:36:07;;;;;;;3.92;1.92;;;10.10;55.10;;;;;;5018268;28;20024;-83
2021/04/22 08:38:34;;;;;;;2.30;1.50;;;10.10;54.40;;;;;;5008143;28;20103;-81
2021/04/22 08:41:00;;;;;;;2.33;1.20;;;10.20;54.40;;;;;;5006212;28;20417;-81
2021/04/22 08:43:27;;;;;;;2.08;1.40;;;10.20;54.40;;;;;;4984787;28;20034;-82
2021/04/22 08:45:53;;;;;;;1.73;1.20;;;10.30;54.40;;;;;;5008211;28;20060;-82
2021/04/22 08:48:20;;;;;;;2.25;1.40;;;10.30;54.30;;;;;;5003177;28;20124;-82
2021/04/22 08:50:48;;;;;;;2.47;1.40;;;10.40;54.30;;;;;;5022467;28;20480;-82
2021/04/22 08:53:17;;;;;;;1.30;1.15;;;10.40;54.30;;;;;;5018337;28;20028;-81
2021/04/22 08:55:44;;;;;;;1.83;1.15;;;10.50;54.20;;;;;;5028198;28;20075;-82
2021/04/22 08:58:10;;;;;;;2.30;1.45;;;10.50;54.20;;;;;;5007823;28;20030;-81
2021/04/22 09:00:41;;;;;;;3.85;1.40;;;10.60;54.20;;;;;;5014679;28;20026;-81
2021/04/22 09:03:07;;;;;;;1.67;1.15;;;10.60;54.20;;;;;;5025910;28;20048;-81
2021/04/22 09:05:33;;;;;;;2.17;1.50;;;10.70;54.10;;;;;;5021076;28;20024;-82
2021/04/22 09:07:58;;;;;;;1.75;1.15;;;10.80;54.10;;;;;;5046808;28;20025;-82
2021/04/22 09:10:25;;;;;;;3.25;1.70;;;10.80;54.10;;;;;;5002348;28;20030;-82
2021/04/22 09:13:04;;;;;;;1.52;1.23;;;10.90;54.10;;;;;;5031400;28;20036;-81
2021/04/22 09:15:32;;;;;;;1.70;1.25;;;10.90;54.10;;;;;;5027232;28;20064;-81
2021/04/22 09:18:18;;;;;;;2.45;1.30;;;11.00;54.00;;;;;;5016063;28;20026;-82
2021/04/22 09:20:46;;;;;;;1.42;1.33;;;11.10;54.10;;;;;;5011032;28;20041;-81
2021/04/22 09:23:23;;;;;;;2.55;1.33;;;11.10;54.00;;;;;;5017004;28;20604;-83
2021/04/22 09:25:59;;;;;;;3.28;1.52;;;11.20;54.10;;;;;;5018365;28;20025;-81
2021/04/22 09:28:39;;;;;;;3.35;1.45;;;11.30;54.00;;;;;;5024372;28;20024;-82
2021/04/22 09:31:07;;;;;;;2.05;1.35;;;11.30;54.10;;;;;;5038508;28;20040;-82
2021/04/22 09:33:34;;;;;;;3.38;1.45;;;11.40;54.00;;;;;;5032115;28;20112;-81
2021/04/22 09:36:14;;;;;;;1.88;1.20;;;11.40;53.90;;;;;;5013821;28;20060;-82
2021/04/22 09:38:41;;;;;;;2.45;1.30;;;11.50;53.90;;;;;;5040490;28;20063;-81
2021/04/22 09:41:09;;;;;;;1.85;1.38;;;11.60;53.80;;;;;;5018260;28;20108;-83
2021/04/22 09:43:35;;;;;;;3.45;1.58;;;11.70;53.70;;;;;;5040040;28;20033;-82
2021/04/22 09:46:01;;;;;;;3.53;1.58;;;11.70;53.60;;;;;;5020598;28;20424;-81
2021/04/22 09:48:30;;;;;;;3.65;1.50;;;11.80;53.60;;;;;;5002047;28;20434;-83
2021/04/22 09:50:58;;;;;;;1.95;1.30;;;11.80;53.60;;;;;;5002365;28;20029;-82
2021/04/22 09:53:26;;;;;;;2.00;1.30;;;11.90;53.60;;;;;;5031726;28;20079;-82
2021/04/22 09:55:56;;;;;;;2.35;1.20;;;12.00;53.50;;;;;;5042662;28;20099;-81
2021/04/22 09:58:29;;;;;;;2.13;1.50;;;12.00;53.50;;;;;;5007020;28;20390;-90
2021/04/22 10:00:56;;;;;;;3.60;1.65;;;12.10;53.50;;;;;;5008504;28;20033;-83
2021/04/22 10:03:23;;;;;;;1.90;1.48;;;12.20;53.50;;;;;;5017613;28;20042;-81
2021/04/22 10:06:01;;;;;;;1.38;1.20;;;12.30;53.60;;;;;;5007175;28;20029;-81
2021/04/22 10:08:27;;;;;;;1.63;1.27;;;12.30;53.50;;;;;;5007558;28;20034;-81
2021/04/22 10:11:19;;;;;;;1.48;1.38;;;12.40;54.10;;;;;;5014910;28;20744;-82
2021/04/22 10:13:50;;;;;;;1.80;1.25;;;12.50;53.50;;;;;;5016757;28;20041;-82
2021/04/22 10:16:15;;;;;;;3.38;1.73;;;12.60;53.30;;;;;;5001104;28;20078;-82
2021/04/22 10:18:43;;;;;;;3.53;1.50;;;12.70;53.30;;;;;;4989836;28;20467;-80
2021/04/22 10:21:13;;;;;;;2.60;1.45;;;12.80;53.30;;;;;;5026109;28;20037;-81
2021/04/22 10:23:39;;;;;;;1.73;1.35;;;12.80;53.40;;;;;;5008968;28;20040;-81
2021/04/22 10:26:15;;;;;;;2.08;1.30;;;13.00;53.30;;;;;;4987455;28;20021;-81
2021/04/22 10:28:41;;;;;;;2.50;1.38;;;13.10;53.30;;;;;;5017487;28;20041;-80
2021/04/22 10:31:07;;;;;;;2.35;1.10;;;13.20;53.10;;;;;;4998360;28;20032;-80
2021/04/22 10:33:33;;;;;;;2.80;1.42;;;13.30;53.10;;;;;;5006350;28;20129;-81
2021/04/22 10:35:59;;;;;;;2.40;1.35;;;13.40;53.20;;;;;;5019335;28;20043;-81
2021/04/22 10:38:25;;;;;;;1.77;1.15;;;13.40;53.20;;;;;;5012998;28;20116;-81
2021/04/22 10:40:52;;;;;;;2.28;1.30;;;13.50;53.10;;;;;;5000761;28;20091;-81
2021/04/22 10:43:24;;;;;;;2.05;1.38;;;13.60;53.00;;;;;;5014081;28;20036;-82
2021/04/22 10:45:52;;;;;;;2.88;1.23;;;13.70;53.00;;;;;;5034196;28;20032;-82
2021/04/22 10:48:19;;;;;;;2.92;1.50;;;13.80;53.00;;;;;;5039916;28;20517;-81
2021/04/22 10:50:48;;;;;;;2.35;1.50;;;13.90;53.00;;;;;;4988458;28;20466;-80
2021/04/22 10:53:19;;;;;;;2.75;1.13;;;14.00;53.10;;;;;;5014372;28;20037;-88
2021/04/22 10:55:47;;;;;;;4.05;1.55;;;14.10;53.00;;;;;;5000625;28;20030;-81
2021/04/22 10:58:20;;;;;;;2.13;1.50;;;14.20;52.90;;;;;;4996990;28;20021;-82
2021/04/22 11:00:53;;;;;;;1.15;1.02;;;14.30;53.00;;;;;;5000261;28;20037;-81
2021/04/22 11:04:01;;;;;;;1.92;1.35;;;14.40;53.00;;;;;;5027241;28;20036;-83
2021/04/22 11:06:35;;;;;;;1.80;1.23;;;14.50;53.20;;;;;;4997575;28;20128;-82
2021/04/22 11:09:15;;;;;;;2.42;1.30;;;14.60;53.00;;;;;;5016185;28;20059;-83
2021/04/22 11:11:55;;;;;;;2.08;1.10;;;14.70;53.20;;;;;;5011430;28;20037;-81
2021/04/22 11:14:23;;;;;;;1.70;1.10;;;14.80;53.40;;;;;;5017153;28;20041;-82
2021/04/22 11:16:52;;;;;;;2.05;1.30;;;14.90;53.30;;;;;;5019288;28;20025;-82
2021/04/22 11:19:23;;;;;;;2.17;1.20;;;15.00;53.30;;;;;;5022233;28;20033;-81
2021/04/22 11:21:58;;;;;;;1.73;1.20;;;15.10;53.30;;;;;;5012028;28;20029;-82
2021/04/22 11:24:36;;;;;;;2.20;1.30;;;15.20;53.30;;;;;;5013383;28;20450;-82
2021/04/22 11:27:14;;;;;;;1.13;1.02;;;15.20;53.30;;;;;;5023767;28;20045;-81
2021/04/22 11:29:45;;;;;;;2.33;1.35;;;15.30;53.30;;;;;;5058851;28;20021;-81
2021/04/22 11:32:15;;;;;;;2.05;1.08;;;15.40;53.40;;;;;;5051977;28;20025;-81
2021/04/22 11:34:41;;;;;;;2.67;1.33;;;15.50;53.40;;;;;;5048590;28;20087;-84
2021/04/22 11:37:23;;;;;;;2.05;1.20;;;15.50;53.30;;;;;;5054896;28;20013;-81
2021/04/22 11:39:55;;;;;;;1.90;1.02;;;15.60;53.40;;;;;;5054005;28;20131;-81
2021/04/22 11:42:22;;;;;;;1.73;1.20;;;15.70;53.30;;;;;;5044194;28;20036;-81
2021/04/22 11:44:51;;;;;;;3.33;1.23;;;15.80;53.20;;;;;;5054892;28;20035;-82
2021/04/22 11:47:27;;;;;;;2.45;1.15;;;15.80;53.20;;;;;;5052107;28;20024;-82
2021/04/22 11:50:12;;;;;;;3.15;1.23;;;15.90;53.30;;;;;;5051548;28;20025;-86
2021/04/22 11:53:00;;;;;;;2.65;1.30;;;16.00;53.40;;;;;;5044141;28;20031;-82
2021/04/22 11:55:27;;;;;;;2.20;1.33;;;16.10;53.30;;;;;;5055031;28;20423;-81
2021/04/22 11:57:58;;;;;;;2.60;1.23;;;16.10;53.00;;;;;;5055429;28;20036;-80
2021/04/22 12:00:31;;;;;;;1.70;1.27;;;16.20;53.00;;;;;;5068707;28;20052;-82
2021/04/22 12:02:58;;;;;;;2.35;1.13;;;16.30;53.10;;;;;;5041740;28;20116;-80
2021/04/22 12:05:25;;;;;;;2.15;1.20;;;16.30;52.90;;;;;;5048106;28;20047;-80
2021/04/22 12:08:02;;;;;;;2.17;1.30;;;16.30;52.90;;;;;;5043655;28;20097;-81
2021/04/22 12:10:29;;;;;;;3.00;1.40;;;16.40;53.00;;;;;;5051990;28;20033;-81
2021/04/22 12:13:11;;;;;;;2.05;1.20;;;16.40;53.00;;;;;;5043076;28;20024;-82
2021/04/22 12:15:40;;;;;;;2.83;1.35;;;16.50;53.10;;;;;;5042245;28;20079;-80
2021/04/22 12:18:08;;;;;;;1.55;1.13;;;16.60;53.00;;;;;;5053677;28;20020;-81
2021/04/22 12:20:35;;;;;;;2.85;1.77;;;16.60;53.00;;;;;;5062716;28;20181;-80
2021/04/22 12:23:01;;;;;;;1.98;1.20;;;16.70;53.00;;;;;;5051705;28;20108;-81
2021/04/22 12:25:27;;;;;;;1.80;1.30;;;16.70;52.90;;;;;;5044203;28;20127;-84
2021/04/22 12:28:03;;;;;;;3.35;1.42;;;16.80;52.80;;;;;;5018965;28;20520;-81
2021/04/22 12:30:34;;;;;;;1.77;1.20;;;16.90;52.90;;;;;;5071436;28;20040;-81
2021/04/22 12:33:13;;;;;;;2.35;1.08;;;16.90;52.80;;;;;;5057166;28;20037;-81
2021/04/22 12:35:42;;;;;;;2.85;1.40;;;16.90;52.80;;;;;;5061977;28;20463;-81
2021/04/22 12:38:17;;;;;;;1.45;1.13;;;17.00;52.80;;;;;;5050724;28;20448;-81
2021/04/22 12:40:46;;;;;;;1.83;1.15;;;17.10;52.90;;;;;;5063014;28;20021;-81
2021/04/22 12:43:13;;;;;;;1.67;1.23;;;17.10;52.80;;;;;;5049330;28;20017;-82
2021/04/22 12:45:39;;;;;;;3.00;1.50;;;17.20;52.80;;;;;;5051029;28;20033;-84
2021/04/22 12:48:08;;;;;;;2.15;1.20;;;17.20;52.70;;;;;;5037856;28;20032;-81
2021/04/22 12:50:45;;;;;;;2.58;1.20;;;17.30;52.70;;;;;;5071460;28;20044;-81
2021/04/22 12:53:19;;;;;;;3.00;1.38;;;17.30;52.60;;;;;;5054878;28;20082;-81
2021/04/22 12:55:57;;;;;;;3.15;1.50;;;17.40;52.60;;;;;;5050977;28;20547;-83
2021/04/22 12:58:46;;;;;;;2.40;1.40;;;17.40;52.40;;;;;;5065157;28;20528;-81
2021/04/22 13:01:19;;;;;;;2.50;1.38;;;17.40;52.20;;;;;;5052498;28;20021;-82